Time;durP1;ratioP1;P1;durP2;ratioP2;P2;SDS_P1;SDS_P2;PMS_P1;PMS_P2;Temp;Humidity;BMP_temperature;BMP_pressure;BME280_temperature;BME280_humidity;BME280_pressure;Samples;Min_cycle;Max_cycle;Signal;HPM_P1;HPM_P2
2022/03/13 00:00:48;;;;;;;2.08;1.00;;;;;;;;;;5034712;28;20047;-55
2022/03/13 00:03:14;;;;;;;4.50;1.30;;;;;;;;;;5034697;28;20029;-56
2022/03/13 00:05:41;;;;;;;9.25;1.95;;;;;;;;;;5034599;28;20036;-55
2022/03/13 00:08:23;;;;;;;2.38;1.83;;;;;;;;;;5034626;28;20075;-53
2022/03/13 00:10:56;;;;;;;1.25;1.15;;;;;;;;;;5034504;28;20060;-54
2022/03/13 00:13:24;;;;;;;1.20;1.10;;;;;;;;;;5034684;28;20132;-56
2022/03/13 00:15:51;;;;;;;2.10;1.05;;;;;;;;;;5034653;28;20026;-55
2022/03/13 00:18:17;;;;;;;1.77;1.27;;;;;;;;;;5034349;28;20036;-55
2022/03/13 00:20:44;;;;;;;1.02;0.93;;;;;;;;;;5034262;28;20033;-55
2022/03/13 00:23:10;;;;;;;2.25;1.27;;;;;;;;;;5034313;28;20419;-55
2022/03/13 00:25:36;;;;;;;1.65;1.15;;;;;;;;;;5034268;28;20071;-55
2022/03/13 00:28:03;;;;;;;1.98;1.10;;;;;;;;;;5034235;28;20029;-51
2022/03/13 00:30:29;;;;;;;1.23;1.13;;;;;;;;;;5034055;28;20476;-54
2022/03/13 00:32:55;;;;;;;1.65;1.15;;;;;;;;;;5034278;28;20391;-55
2022/03/13 00:35:21;;;;;;;1.48;1.05;;;;;;;;;;5034082;28;20026;-56
2022/03/13 00:37:47;;;;;;;1.33;1.20;;;;;;;;;;5034322;28;20036;-55
2022/03/13 00:40:14;;;;;;;2.88;1.20;;;;;;;;;;5033990;28;20445;-56
2022/03/13 00:42:40;;;;;;;1.40;1.20;;;;;;;;;;5033924;28;20112;-55
2022/03/13 00:45:06;;;;;;;1.73;1.20;;;;;;;;;;5033758;28;20077;-55
2022/03/13 00:47:32;;;;;;;1.92;1.10;;;;;;;;;;5033852;28;20044;-55
2022/03/13 00:49:58;;;;;;;2.35;1.33;;;;;;;;;;5033769;28;20037;-55
2022/03/13 00:52:24;;;;;;;1.70;1.13;;;;;;;;;;5033646;28;20080;-55
2022/03/13 00:54:50;;;;;;;1.40;1.00;;;;;;;;;;5033582;28;20041;-56
2022/03/13 00:57:17;;;;;;;1.13;1.02;;;;;;;;;;5033649;28;20032;-56
2022/03/13 00:59:43;;;;;;;0.93;0.70;;;;;;;;;;5032949;28;20051;-54
2022/03/13 01:02:10;;;;;;;3.88;1.42;;;;;;;;;;5033522;28;20112;-56
2022/03/13 01:04:36;;;;;;;1.23;1.13;;;;;;;;;;5033784;28;20436;-55
2022/03/13 01:07:02;;;;;;;1.45;1.20;;;;;;;;;;5033431;28;20507;-55
2022/03/13 01:09:28;;;;;;;1.25;0.90;;;;;;;;;;5033432;28;20472;-55
2022/03/13 01:11:54;;;;;;;1.85;1.23;;;;;;;;;;5033340;28;20030;-56
2022/03/13 01:14:21;;;;;;;1.90;1.10;;;;;;;;;;5033234;28;20048;-56
2022/03/13 01:16:47;;;;;;;0.95;0.82;;;;;;;;;;5033245;28;20068;-54
2022/03/13 01:19:13;;;;;;;0.90;0.85;;;;;;;;;;5033230;28;20064;-53
2022/03/13 01:21:41;;;;;;;1.58;1.10;;;;;;;;;;5033268;28;20025;-55
2022/03/13 01:24:18;;;;;;;0.98;0.98;;;;;;;;;;5033174;28;20044;-55
2022/03/13 01:26:44;;;;;;;1.45;1.30;;;;;;;;;;5031856;28;20523;-54
2022/03/13 01:29:12;;;;;;;1.42;0.95;;;;;;;;;;5033077;28;20044;-55
2022/03/13 01:31:39;;;;;;;1.02;0.80;;;;;;;;;;5033049;28;20052;-54
2022/03/13 01:34:06;;;;;;;1.65;0.90;;;;;;;;;;5032813;28;20041;-56
2022/03/13 01:36:32;;;;;;;1.40;0.90;;;;;;;;;;5032934;28;20038;-56
2022/03/13 01:39:00;;;;;;;1.10;1.02;;;;;;;;;;5032850;28;20036;-55
2022/03/13 01:41:28;;;;;;;2.13;1.50;;;;;;;;;;5031598;28;20484;-55
2022/03/13 01:43:55;;;;;;;1.52;0.77;;;;;;;;;;5032501;28;20515;-55
2022/03/13 01:46:21;;;;;;;1.48;1.08;;;;;;;;;;5032723;28;20144;-56
2022/03/13 01:48:56;;;;;;;1.20;1.10;;;;;;;;;;5032675;28;20108;-56
2022/03/13 01:51:22;;;;;;;1.15;1.00;;;;;;;;;;5032647;28;20033;-55
2022/03/13 01:53:50;;;;;;;0.93;0.88;;;;;;;;;;5032518;28;20095;-55
2022/03/13 01:56:16;;;;;;;1.10;1.00;;;;;;;;;;5032578;28;20029;-56
2022/03/13 01:58:42;;;;;;;0.80;0.80;;;;;;;;;;5032683;28;20033;-55
2022/03/13 02:01:08;;;;;;;0.80;0.80;;;;;;;;;;5032783;28;20109;-55
2022/03/13 02:03:34;;;;;;;1.00;0.90;;;;;;;;;;5032569;28;20392;-56
2022/03/13 02:06:00;;;;;;;2.28;0.70;;;;;;;;;;5032473;28;20021;-56
2022/03/13 02:08:26;;;;;;;1.85;0.70;;;;;;;;;;5032728;28;20036;-55
2022/03/13 02:10:52;;;;;;;1.42;0.75;;;;;;;;;;5031490;28;20036;-55
2022/03/13 02:13:19;;;;;;;1.27;1.00;;;;;;;;;;5032302;28;20041;-55
2022/03/13 02:15:45;;;;;;;1.00;0.90;;;;;;;;;;5032372;28;20029;-55
2022/03/13 02:18:11;;;;;;;1.88;1.20;;;;;;;;;;5032299;28;20396;-55
2022/03/13 02:20:45;;;;;;;1.17;1.05;;;;;;;;;;5032558;28;20112;-56
2022/03/13 02:23:32;;;;;;;1.00;0.90;;;;;;;;;;5032175;28;20083;-55
2022/03/13 02:25:58;;;;;;;1.85;1.00;;;;;;;;;;5032254;28;20030;-55
2022/03/13 02:28:26;;;;;;;0.88;0.80;;;;;;;;;;5032225;28;20057;-55
2022/03/13 02:30:52;;;;;;;0.68;0.68;;;;;;;;;;5032215;28;20104;-56
2022/03/13 02:33:20;;;;;;;1.05;0.75;;;;;;;;;;5032118;28;20071;-55
2022/03/13 02:35:53;;;;;;;1.73;1.05;;;;;;;;;;5032596;28;20171;-56
2022/03/13 02:38:19;;;;;;;1.13;1.02;;;;;;;;;;5032222;28;20096;-56
2022/03/13 02:40:45;;;;;;;1.50;1.00;;;;;;;;;;5032134;28;20476;-56
2022/03/13 02:43:11;;;;;;;1.17;1.00;;;;;;;;;;5032298;28;20059;-55
2022/03/13 02:45:38;;;;;;;1.00;0.90;;;;;;;;;;5032030;28;20041;-56
2022/03/13 02:48:05;;;;;;;1.08;0.98;;;;;;;;;;5032359;28;20044;-56
2022/03/13 02:50:31;;;;;;;0.63;0.63;;;;;;;;;;5032343;28;20357;-53
2022/03/13 02:52:57;;;;;;;0.70;0.70;;;;;;;;;;5032030;28;20033;-54
2022/03/13 02:55:24;;;;;;;0.73;0.73;;;;;;;;;;5032079;28;20438;-54
2022/03/13 02:57:50;;;;;;;1.73;0.93;;;;;;;;;;5032036;28;20108;-55
2022/03/13 03:00:17;;;;;;;1.10;0.80;;;;;;;;;;5032187;28;20396;-56
2022/03/13 03:02:43;;;;;;;1.02;0.80;;;;;;;;;;5032236;28;20530;-56
2022/03/13 03:05:10;;;;;;;2.75;1.17;;;;;;;;;;5031910;28;20029;-55
2022/03/13 03:07:36;;;;;;;1.10;1.00;;;;;;;;;;5031849;28;20025;-56
2022/03/13 03:10:04;;;;;;;0.95;0.85;;;;;;;;;;5031893;28;20037;-55
2022/03/13 03:12:30;;;;;;;0.90;0.90;;;;;;;;;;5031834;28;20132;-55
2022/03/13 03:14:56;;;;;;;1.00;0.90;;;;;;;;;;5031848;28;20504;-55
2022/03/13 03:17:22;;;;;;;1.13;1.02;;;;;;;;;;5031794;28;20419;-55
2022/03/13 03:19:48;;;;;;;0.90;0.80;;;;;;;;;;5031820;28;20121;-56
2022/03/13 03:22:15;;;;;;;0.93;0.93;;;;;;;;;;5032578;28;20036;-55
2022/03/13 03:24:41;;;;;;;0.70;0.70;;;;;;;;;;5035650;28;20033;-54
2022/03/13 03:27:07;;;;;;;1.10;1.02;;;;;;;;;;5035409;28;20036;-56
2022/03/13 03:29:33;;;;;;;0.77;0.70;;;;;;;;;;5035352;28;20026;-55
2022/03/13 03:31:59;;;;;;;1.15;0.77;;;;;;;;;;5035647;28;20057;-57
2022/03/13 03:34:26;;;;;;;1.38;1.23;;;;;;;;;;5035417;28;20029;-55
2022/03/13 03:36:54;;;;;;;1.20;1.10;;;;;;;;;;5035199;28;20474;-54
2022/03/13 03:39:21;;;;;;;1.48;0.70;;;;;;;;;;5035165;28;20052;-56
2022/03/13 03:41:47;;;;;;;0.93;0.85;;;;;;;;;;5035081;28;20411;-56
2022/03/13 03:44:14;;;;;;;0.70;0.70;;;;;;;;;;5034874;28;20049;-55
2022/03/13 03:46:42;;;;;;;0.90;0.65;;;;;;;;;;5035014;28;20025;-55
2022/03/13 03:49:08;;;;;;;0.85;0.82;;;;;;;;;;5035374;28;20033;-55
2022/03/13 03:51:34;;;;;;;0.98;0.90;;;;;;;;;;5034891;28;20488;-55
2022/03/13 03:54:01;;;;;;;0.80;0.80;;;;;;;;;;5034849;28;20046;-56
2022/03/13 03:56:27;;;;;;;1.08;0.77;;;;;;;;;;5034781;28;20105;-55
2022/03/13 03:58:53;;;;;;;0.85;0.70;;;;;;;;;;5034814;28;20087;-55
2022/03/13 04:01:19;;;;;;;0.85;0.70;;;;;;;;;;5034766;28;20022;-56
2022/03/13 04:03:45;;;;;;;1.17;0.80;;;;;;;;;;5034618;28;20395;-55
2022/03/13 04:06:11;;;;;;;1.15;0.82;;;;;;;;;;5034769;28;20083;-56
2022/03/13 04:08:37;;;;;;;0.88;0.80;;;;;;;;;;5034638;28;20036;-54
2022/03/13 04:11:03;;;;;;;0.80;0.80;;;;;;;;;;5034583;28;20053;-54
2022/03/13 04:13:29;;;;;;;0.60;0.60;;;;;;;;;;5034475;28;20084;-55
2022/03/13 04:15:56;;;;;;;0.80;0.80;;;;;;;;;;5034766;28;20041;-55
2022/03/13 04:18:22;;;;;;;1.10;0.70;;;;;;;;;;5034506;28;20030;-55
2022/03/13 04:20:48;;;;;;;0.68;0.60;;;;;;;;;;5034646;28;20353;-55
2022/03/13 04:23:14;;;;;;;0.80;0.55;;;;;;;;;;5034291;28;20036;-55
2022/03/13 04:25:40;;;;;;;0.73;0.73;;;;;;;;;;5034608;28;20047;-56
2022/03/13 04:28:08;;;;;;;1.10;0.90;;;;;;;;;;5034271;28;20030;-54
2022/03/13 04:30:35;;;;;;;0.82;0.70;;;;;;;;;;5034165;28;20033;-55
2022/03/13 04:33:01;;;;;;;1.10;1.00;;;;;;;;;;5033921;28;20037;-56
2022/03/13 04:35:27;;;;;;;1.08;1.00;;;;;;;;;;5033288;28;20029;-55
2022/03/13 04:37:53;;;;;;;0.70;0.70;;;;;;;;;;5034015;28;20029;-56
2022/03/13 04:40:19;;;;;;;0.82;0.73;;;;;;;;;;5034066;28;20492;-55
2022/03/13 04:42:46;;;;;;;1.35;0.90;;;;;;;;;;5033913;28;20373;-56
2022/03/13 04:45:13;;;;;;;1.10;0.68;;;;;;;;;;5033851;28;20038;-55
2022/03/13 04:47:39;;;;;;;2.13;0.88;;;;;;;;;;5033834;28;20082;-56
2022/03/13 04:50:05;;;;;;;0.95;0.85;;;;;;;;;;5033857;28;20021;-56
2022/03/13 04:52:31;;;;;;;1.40;1.13;;;;;;;;;;5033734;28;20065;-56
2022/03/13 04:54:57;;;;;;;0.80;0.80;;;;;;;;;;5033699;28;20084;-55
2022/03/13 04:57:23;;;;;;;0.63;0.60;;;;;;;;;;5033727;28;20037;-53
2022/03/13 04:59:49;;;;;;;0.70;0.70;;;;;;;;;;5033602;28;20511;-56
2022/03/13 05:02:15;;;;;;;1.17;0.80;;;;;;;;;;5033642;28;20098;-56
2022/03/13 05:04:42;;;;;;;0.90;0.80;;;;;;;;;;5033550;28;20029;-56
2022/03/13 05:07:08;;;;;;;0.77;0.77;;;;;;;;;;5033446;28;20029;-55
2022/03/13 05:09:35;;;;;;;1.13;0.70;;;;;;;;;;5033459;28;20040;-55
2022/03/13 05:12:06;;;;;;;0.93;0.70;;;;;;;;;;5033378;28;20159;-55
2022/03/13 05:14:32;;;;;;;1.20;0.70;;;;;;;;;;5033601;28;20037;-56
2022/03/13 05:16:58;;;;;;;1.58;0.85;;;;;;;;;;5033281;28;20036;-55
2022/03/13 05:19:24;;;;;;;0.77;0.73;;;;;;;;;;5033544;28;20400;-55
2022/03/13 05:21:50;;;;;;;0.82;0.68;;;;;;;;;;5033535;28;20440;-54
2022/03/13 05:24:16;;;;;;;0.90;0.90;;;;;;;;;;5033214;28;20057;-56
2022/03/13 05:26:44;;;;;;;0.80;0.80;;;;;;;;;;5033191;28;20052;-56
2022/03/13 05:29:10;;;;;;;0.98;0.60;;;;;;;;;;5033118;28;20076;-55
2022/03/13 05:31:36;;;;;;;1.40;1.27;;;;;;;;;;5033132;28;20028;-55
2022/03/13 05:34:02;;;;;;;0.85;0.68;;;;;;;;;;5033233;28;20037;-55
2022/03/13 05:36:28;;;;;;;0.98;0.70;;;;;;;;;;5033041;28;20495;-56
2022/03/13 05:38:54;;;;;;;0.70;0.63;;;;;;;;;;5032955;28;20075;-54
2022/03/13 05:41:22;;;;;;;0.77;0.77;;;;;;;;;;5033003;28;20030;-56
2022/03/13 05:43:49;;;;;;;0.70;0.70;;;;;;;;;;5032625;28;20079;-55
2022/03/13 05:46:15;;;;;;;0.80;0.80;;;;;;;;;;5032649;28;20515;-55
2022/03/13 05:48:41;;;;;;;0.90;0.85;;;;;;;;;;5032729;28;20061;-56
2022/03/13 05:51:07;;;;;;;0.85;0.70;;;;;;;;;;5032634;28;20063;-56
2022/03/13 05:53:33;;;;;;;0.80;0.80;;;;;;;;;;5032657;28;20449;-56
2022/03/13 05:55:59;;;;;;;0.90;0.90;;;;;;;;;;5032650;28;20435;-55
2022/03/13 05:58:25;;;;;;;0.80;0.80;;;;;;;;;;5032726;28;20036;-52
2022/03/13 06:01:04;;;;;;;0.80;0.80;;;;;;;;;;5032550;28;20460;-50
2022/03/13 06:03:30;;;;;;;0.93;0.90;;;;;;;;;;5032600;28;20387;-50
2022/03/13 06:05:56;;;;;;;1.02;0.90;;;;;;;;;;5032767;28;20431;-49
2022/03/13 06:08:22;;;;;;;0.80;0.80;;;;;;;;;;5032780;28;20026;-49
2022/03/13 06:10:48;;;;;;;0.75;0.75;;;;;;;;;;5032518;28;20022;-50
2022/03/13 06:13:14;;;;;;;1.00;0.90;;;;;;;;;;5032369;28;20484;-50
2022/03/13 06:15:40;;;;;;;1.50;1.13;;;;;;;;;;5032523;28;20041;-50
2022/03/13 06:18:06;;;;;;;0.90;0.75;;;;;;;;;;5032456;28;20029;-50
2022/03/13 06:20:32;;;;;;;0.80;0.80;;;;;;;;;;5032419;28;20037;-49
2022/03/13 06:22:59;;;;;;;0.80;0.77;;;;;;;;;;5032652;28;20112;-50
2022/03/13 06:25:25;;;;;;;0.82;0.80;;;;;;;;;;5032337;28;20025;-51
2022/03/13 06:27:51;;;;;;;1.48;1.17;;;;;;;;;;5032317;28;20029;-50
2022/03/13 06:30:20;;;;;;;0.82;0.80;;;;;;;;;;5032209;28;20113;-49
2022/03/13 06:32:53;;;;;;;1.27;1.00;;;;;;;;;;5032143;28;20021;-49
2022/03/13 06:35:20;;;;;;;1.63;1.27;;;;;;;;;;5032249;28;20029;-50
2022/03/13 06:37:48;;;;;;;1.27;1.17;;;;;;;;;;5032185;28;20427;-48
2022/03/13 06:40:16;;;;;;;1.70;1.23;;;;;;;;;;5032134;28;20033;-50
2022/03/13 06:42:42;;;;;;;1.45;1.10;;;;;;;;;;5032086;28;20038;-52
2022/03/13 06:45:10;;;;;;;1.20;1.10;;;;;;;;;;5031898;28;20045;-48
2022/03/13 06:47:36;;;;;;;1.23;1.10;;;;;;;;;;5032388;28;20034;-49
2022/03/13 06:50:02;;;;;;;1.40;1.30;;;;;;;;;;5032088;28;20039;-50
2022/03/13 06:52:28;;;;;;;1.20;1.10;;;;;;;;;;5032105;28;20029;-50
2022/03/13 06:54:54;;;;;;;1.20;1.10;;;;;;;;;;5032032;28;20545;-50
2022/03/13 06:57:20;;;;;;;1.20;1.10;;;;;;;;;;5033375;28;20029;-49
2022/03/13 06:59:46;;;;;;;1.30;1.20;;;;;;;;;;5036134;28;20391;-49
2022/03/13 07:02:13;;;;;;;2.25;1.10;;;;;;;;;;5036134;28;20018;-48
2022/03/13 07:04:39;;;;;;;2.58;1.30;;;;;;;;;;5035873;28;20032;-48
2022/03/13 07:07:06;;;;;;;1.42;1.20;;;;;;;;;;5035789;28;20028;-50
2022/03/13 07:09:32;;;;;;;1.85;1.50;;;;;;;;;;5035763;28;20033;-49
2022/03/13 07:11:58;;;;;;;1.52;1.30;;;;;;;;;;5035735;28;20029;-49
2022/03/13 07:14:24;;;;;;;1.30;1.20;;;;;;;;;;5035558;28;20041;-50
2022/03/13 07:16:50;;;;;;;1.17;1.10;;;;;;;;;;5035595;28;20029;-49
2022/03/13 07:19:16;;;;;;;2.17;1.67;;;;;;;;;;5035562;28;20492;-50
2022/03/13 07:21:42;;;;;;;2.33;1.50;;;;;;;;;;5035514;28;20395;-50
2022/03/13 07:24:08;;;;;;;1.95;1.63;;;;;;;;;;5035469;28;20033;-49
2022/03/13 07:26:34;;;;;;;1.25;1.15;;;;;;;;;;5035405;28;20117;-49
2022/03/13 07:29:01;;;;;;;1.77;1.48;;;;;;;;;;5035469;28;20107;-49
2022/03/13 07:31:27;;;;;;;1.52;1.42;;;;;;;;;;5034094;28;20601;-50
2022/03/13 07:33:53;;;;;;;1.95;1.77;;;;;;;;;;5035268;28;20068;-48
2022/03/13 07:36:19;;;;;;;1.95;1.63;;;;;;;;;;5035213;28;20034;-49
2022/03/13 07:38:45;;;;;;;1.70;1.30;;;;;;;;;;5035236;28;20073;-48
2022/03/13 07:41:12;;;;;;;1.30;1.20;;;;;;;;;;5035187;28;20365;-49
2022/03/13 07:43:38;;;;;;;1.80;1.23;;;;;;;;;;5034841;28;20421;-50
2022/03/13 07:46:04;;;;;;;6.05;1.38;;;;;;;;;;5035182;28;20137;-51
2022/03/13 07:48:30;;;;;;;4.82;1.52;;;;;;;;;;5035431;28;20498;-49
2022/03/13 07:50:58;;;;;;;5.53;1.70;;;;;;;;;;5035234;28;20045;-50
2022/03/13 07:53:27;;;;;;;3.25;1.50;;;;;;;;;;5034828;28;20033;-50
2022/03/13 07:55:53;;;;;;;1.42;1.30;;;;;;;;;;5035180;28;20064;-49
2022/03/13 07:58:20;;;;;;;1.50;1.27;;;;;;;;;;5034796;28;20032;-49
2022/03/13 08:00:46;;;;;;;2.28;1.50;;;;;;;;;;5035051;28;20408;-49
2022/03/13 08:03:12;;;;;;;2.30;1.48;;;;;;;;;;5034770;28;20036;-50
2022/03/13 08:05:39;;;;;;;2.00;1.70;;;;;;;;;;5034943;28;20424;-48
2022/03/13 08:08:05;;;;;;;2.15;1.73;;;;;;;;;;5034658;28;20037;-50
2022/03/13 08:10:31;;;;;;;3.28;1.95;;;;;;;;;;5034811;28;20036;-49
2022/03/13 08:12:57;;;;;;;4.68;1.80;;;;;;;;;;5034502;28;20172;-49
2022/03/13 08:15:23;;;;;;;3.83;2.10;;;;;;;;;;5034539;28;20059;-48
2022/03/13 08:17:49;;;;;;;2.85;1.98;;;;;;;;;;5034512;28;20053;-49
2022/03/13 08:20:15;;;;;;;2.65;1.85;;;;;;;;;;5034420;28;20040;-49
2022/03/13 08:22:41;;;;;;;2.35;1.75;;;;;;;;;;5034611;28;20029;-48
2022/03/13 08:25:07;;;;;;;3.08;1.60;;;;;;;;;;5034366;28;20025;-48
2022/03/13 08:27:34;;;;;;;1.63;1.50;;;;;;;;;;5034286;28;20040;-55
2022/03/13 08:30:01;;;;;;;4.35;1.85;;;;;;;;;;5034318;28;20057;-56
2022/03/13 08:32:27;;;;;;;6.22;2.28;;;;;;;;;;5034201;28;20033;-57
2022/03/13 08:34:53;;;;;;;2.47;2.03;;;;;;;;;;5034237;28;20048;-56
2022/03/13 08:37:19;;;;;;;3.30;2.15;;;;;;;;;;5034076;28;20017;-56
2022/03/13 08:39:45;;;;;;;3.00;1.88;;;;;;;;;;5034020;28;20034;-55
2022/03/13 08:42:11;;;;;;;3.72;2.20;;;;;;;;;;5034031;28;20025;-56
2022/03/13 08:44:37;;;;;;;4.78;2.00;;;;;;;;;;5033719;28;20116;-56
2022/03/13 08:47:04;;;;;;;5.45;2.00;;;;;;;;;;5033883;28;20021;-56
2022/03/13 08:49:30;;;;;;;3.97;2.25;;;;;;;;;;5033850;28;20433;-55
2022/03/13 08:51:56;;;;;;;3.40;2.30;;;;;;;;;;5033716;28;20056;-54
2022/03/13 08:54:22;;;;;;;2.33;1.63;;;;;;;;;;5033743;28;20033;-53
2022/03/13 08:56:48;;;;;;;2.35;2.10;;;;;;;;;;5033540;28;20048;-55
2022/03/13 08:59:15;;;;;;;3.45;1.85;;;;;;;;;;5033448;28;20037;-56
2022/03/13 09:01:41;;;;;;;5.28;1.90;;;;;;;;;;5033529;28;20487;-54
2022/03/13 09:04:07;;;;;;;5.18;2.47;;;;;;;;;;5033742;28;20033;-56
2022/03/13 09:06:33;;;;;;;2.95;2.00;;;;;;;;;;5033386;28;20464;-54
2022/03/13 09:08:59;;;;;;;2.72;1.90;;;;;;;;;;5033281;28;20499;-53
2022/03/13 09:11:25;;;;;;;4.70;2.65;;;;;;;;;;5033278;28;20029;-56
2022/03/13 09:13:51;;;;;;;3.53;1.63;;;;;;;;;;5033089;28;20140;-55
2022/03/13 09:16:17;;;;;;;2.55;1.60;;;;;;;;;;5033051;28;20053;-55
2022/03/13 09:18:43;;;;;;;3.72;1.90;;;;;;;;;;5033141;28;20036;-55
2022/03/13 09:21:09;;;;;;;3.10;2.10;;;;;;;;;;5032706;28;20032;-54
2022/03/13 09:23:36;;;;;;;2.78;2.10;;;;;;;;;;5031977;28;20112;-54
2022/03/13 09:26:02;;;;;;;3.08;1.75;;;;;;;;;;5033234;28;20024;-55
2022/03/13 09:28:29;;;;;;;3.25;1.88;;;;;;;;;;5033109;28;20033;-55
2022/03/13 09:30:55;;;;;;;3.47;1.92;;;;;;;;;;5032974;28;20025;-54
2022/03/13 09:33:21;;;;;;;3.35;1.70;;;;;;;;;;5032968;28;20037;-54
2022/03/13 09:35:48;;;;;;;4.50;2.05;;;;;;;;;;5032993;28;20030;-54
2022/03/13 09:38:15;;;;;;;3.45;1.73;;;;;;;;;;5033265;28;20191;-55
2022/03/13 09:40:42;;;;;;;2.30;2.00;;;;;;;;;;5033265;28;20036;-55
2022/03/13 09:43:08;;;;;;;7.03;2.38;;;;;;;;;;5032880;28;20033;-55
2022/03/13 09:45:34;;;;;;;6.20;2.13;;;;;;;;;;5032648;28;20107;-56
2022/03/13 09:48:02;;;;;;;3.00;1.90;;;;;;;;;;5033090;28;20392;-54
2022/03/13 09:50:29;;;;;;;2.70;1.60;;;;;;;;;;5032785;28;20034;-56
2022/03/13 09:52:55;;;;;;;3.17;2.10;;;;;;;;;;5032885;28;20112;-55
2022/03/13 09:55:20;;;;;;;3.08;1.88;;;;;;;;;;5032740;28;20176;-53
2022/03/13 09:57:48;;;;;;;2.30;1.80;;;;;;;;;;5032762;28;20025;-55
2022/03/13 10:00:16;;;;;;;2.40;1.95;;;;;;;;;;5032832;28;20040;-55
2022/03/13 10:02:43;;;;;;;3.67;1.98;;;;;;;;;;5032563;28;20026;-55
2022/03/13 10:05:13;;;;;;;2.90;1.95;;;;;;;;;;5032580;28;20029;-55
2022/03/13 10:08:00;;;;;;;2.83;2.03;;;;;;;;;;5032565;28;20032;-53
2022/03/13 10:10:54;;;;;;;4.90;1.90;;;;;;;;;;5032523;28;20017;-56
2022/03/13 10:13:41;;;;;;;4.60;1.70;;;;;;;;;;5030540;28;20049;-55
2022/03/13 10:16:32;;;;;;;1.77;1.67;;;;;;;;;;5032492;28;20018;-55
2022/03/13 10:19:12;;;;;;;4.35;1.95;;;;;;;;;;5032278;28;20036;-54
2022/03/13 10:21:39;;;;;;;5.38;1.85;;;;;;;;;;5032349;28;20025;-55
2022/03/13 10:24:14;;;;;;;4.03;1.80;;;;;;;;;;5032332;28;20053;-55
2022/03/13 10:26:40;;;;;;;5.55;1.60;;;;;;;;;;5032278;28;20013;-54
2022/03/13 10:29:08;;;;;;;4.65;2.08;;;;;;;;;;5032315;28;20468;-55
2022/03/13 10:31:35;;;;;;;3.55;1.70;;;;;;;;;;5032277;28;20116;-55
2022/03/13 10:34:01;;;;;;;10.10;2.42;;;;;;;;;;5036300;28;20052;-56
2022/03/13 10:36:38;;;;;;;5.28;2.47;;;;;;;;;;5036627;28;20502;-56
2022/03/13 10:39:05;;;;;;;2.83;1.98;;;;;;;;;;5036285;28;20391;-57
2022/03/13 10:41:44;;;;;;;3.67;1.95;;;;;;;;;;5036179;28;20053;-56
2022/03/13 10:44:36;;;;;;;3.05;1.90;;;;;;;;;;5035945;28;20041;-56
2022/03/13 10:47:05;;;;;;;2.95;1.73;;;;;;;;;;5036204;28;20106;-57
2022/03/13 10:49:52;;;;;;;2.33;1.90;;;;;;;;;;5036039;28;20476;-57
2022/03/13 10:52:31;;;;;;;2.47;1.88;;;;;;;;;;5036072;28;20451;-55
2022/03/13 10:55:01;;;;;;;6.32;1.77;;;;;;;;;;5035872;28;20033;-56
2022/03/13 10:57:27;;;;;;;;;;;;;;;;;;5036284;28;20476;-56
2022/03/13 10:59:53;;;;;;;;;;;;;;;;;;5036216;28;19912;-56
2022/03/13 11:02:19;;;;;;;;;;;;;;;;;;5036116;28;19905;-55
2022/03/13 11:04:45;;;;;;;;;;;;;;;;;;5036208;28;19905;-54
2022/03/13 11:07:11;;;;;;;;;;;;;;;;;;5036376;28;19951;-55
2022/03/13 11:09:37;;;;;;;;;;;;;;;;;;5036150;28;19905;-55
2022/03/13 11:12:09;;;;;;;;;;;;;;;;;;5036229;28;19974;-55
2022/03/13 11:14:35;;;;;;;;;;;;;;;;;;5042661;28;19924;-54
2022/03/13 11:17:01;;;;;;;;;;;;;;;;;;5036411;28;19905;-54
2022/03/13 11:19:28;;;;;;;;;;;;;;;;;;5036217;28;20271;-57
2022/03/13 11:21:54;;;;;;;;;;;;;;;;;;5036255;28;19905;-57
2022/03/13 11:24:20;;;;;;;;;;;;;;;;;;5035842;28;19912;-56
2022/03/13 11:26:46;;;;;;;;;;;;;;;;;;5035860;28;19966;-55
2022/03/13 11:29:12;;;;;;;;;;;;;;;;;;5035869;28;19912;-56
2022/03/13 11:31:38;;;;;;;;;;;;;;;;;;5034482;28;19912;-53
2022/03/13 11:34:04;;;;;;;;;;;;;;;;;;5035832;28;20284;-53
2022/03/13 11:36:30;;;;;;;;;;;;;;;;;;5035432;28;19912;-55
2022/03/13 11:38:56;;;;;;;;;;;;;;;;;;5035533;28;19905;-54
2022/03/13 11:41:22;;;;;;;;;;;;;;;;;;5035048;28;19951;-55
2022/03/13 11:43:48;;;;;;;;;;;;;;;;;;5034335;28;19912;-56
2022/03/13 11:46:14;;;;;;;;;;;;;;;;;;5035531;28;20314;-56
2022/03/13 11:48:40;;;;;;;;;;;;;;;;;;5035194;28;19911;-55
2022/03/13 11:51:07;;;;;;;;;;;;;;;;;;5035232;28;19935;-56
2022/03/13 11:53:33;;;;;;;;;;;;;;;;;;5034906;28;19909;-54
2022/03/13 11:55:59;;;;;;;;;;;;;;;;;;5034792;28;19958;-55
2022/03/13 11:58:25;;;;;;;;;;;;;;;;;;5034829;28;20110;-55
2022/03/13 12:00:51;;;;;;;;;;;;;;;;;;5034747;28;19905;-55
2022/03/13 12:03:16;;;;;;;;;;;;;;;;;;5034753;28;19932;-55
2022/03/13 12:05:42;;;;;;;;;;;;;;;;;;5035414;28;20355;-57
2022/03/13 12:08:08;;;;;;;;;;;;;;;;;;5035167;28;19995;-57
2022/03/13 12:10:37;;;;;;;;;;;;;;;;;;5034975;28;19913;-56
2022/03/13 12:13:03;;;;;;;;;;;;;;;;;;5034888;28;19945;-59
2022/03/13 12:15:29;;;;;;;;;;;;;;;;;;5034926;28;19917;-59
2022/03/13 12:17:57;;;;;;;;;;;;;;;;;;5034515;28;19905;-58
2022/03/13 12:20:24;;;;;;;;;;;;;;;;;;5034751;28;20378;-58
2022/03/13 12:22:53;;;;;;;;;;;;;;;;;;5034889;28;19927;-58
2022/03/13 12:25:18;;;;;;;;;;;;;;;;;;5034871;28;20376;-59
2022/03/13 12:27:44;;;;;;;;;;;;;;;;;;5034702;28;19935;-59
2022/03/13 12:30:11;;;;;;;;;;;;;;;;;;5034739;28;20371;-59
2022/03/13 12:32:37;;;;;;;;;;;;;;;;;;5034658;28;20502;-58
2022/03/13 12:35:03;;;;;;;;;;;;;;;;;;5034948;28;19920;-58
2022/03/13 12:37:29;;;;;;;;;;;;;;;;;;5034825;28;19912;-59
2022/03/13 12:39:59;;;;;;;;;;;;;;;;;;5034534;28;20004;-58
2022/03/13 12:42:24;;;;;;;;;;;;;;;;;;5034615;28;20374;-59
2022/03/13 12:44:50;;;;;;;;;;;;;;;;;;5034161;28;20132;-59
2022/03/13 12:47:16;;;;;;;;;;;;;;;;;;5034346;28;19940;-58
2022/03/13 12:49:42;;;;;;;;;;;;;;;;;;5034267;28;20287;-59
2022/03/13 12:52:08;;;;;;;;;;;;;;;;;;5034511;28;19905;-58
2022/03/13 12:54:34;;;;;;;;;;;;;;;;;;5033349;28;20284;-58
2022/03/13 12:57:00;;;;;;;;;;;;;;;;;;5034037;28;19915;-59
2022/03/13 12:59:26;;;;;;;;;;;;;;;;;;5034135;28;20350;-58
2022/03/13 13:01:52;;;;;;;;;;;;;;;;;;5034074;28;20000;-58
2022/03/13 13:04:20;;;;;;;;;;;;;;;;;;5034070;28;20371;-59
2022/03/13 13:06:46;;;;;;;;;;;;;;;;;;5034014;28;19953;-58
2022/03/13 13:09:11;;;;;;;;;;;;;;;;;;5034282;28;19959;-59
2022/03/13 13:11:37;;;;;;;;;;;;;;;;;;5033941;28;19912;-58
2022/03/13 13:14:03;;;;;;;;;;;;;;;;;;5033740;28;19913;-59
2022/03/13 13:16:29;;;;;;;;;;;;;;;;;;5033820;28;19905;-58
2022/03/13 13:18:55;;;;;;;;;;;;;;;;;;5033818;28;20268;-58
2022/03/13 13:21:21;;;;;;;;;;;;;;;;;;5033800;28;19905;-58
2022/03/13 13:23:47;;;;;;;;;;;;;;;;;;5033898;28;20450;-58
2022/03/13 13:26:13;;;;;;;;;;;;;;;;;;5033699;28;19905;-58
2022/03/13 13:28:39;;;;;;;;;;;;;;;;;;5033569;28;20057;-58
2022/03/13 13:31:05;;;;;;;;;;;;;;;;;;5033486;28;19955;-59
2022/03/13 13:33:32;;;;;;;;;;;;;;;;;;5033398;28;19909;-59
2022/03/13 13:36:01;;;;;;;;;;;;;;;;;;5033549;28;19909;-58
2022/03/13 13:38:27;;;;;;;;;;;;;;;;;;5033750;28;19912;-59
2022/03/13 13:40:53;;;;;;;;;;;;;;;;;;5033639;28;19961;-58
2022/03/13 13:43:20;;;;;;;;;;;;;;;;;;5033141;28;19921;-58
2022/03/13 13:45:46;;;;;;;;;;;;;;;;;;5033079;28;19972;-58
2022/03/13 13:48:12;;;;;;;;;;;;;;;;;;5033270;28;19905;-58
2022/03/13 13:50:38;;;;;;;;;;;;;;;;;;5033567;28;20324;-58
2022/03/13 13:53:08;;;;;;;;;;;;;;;;;;5033112;28;19995;-59
2022/03/13 13:55:34;;;;;;;;;;;;;;;;;;5033253;28;19913;-58
2022/03/13 13:58:00;;;;;;;;;;;;;;;;;;5033155;28;19909;-58
2022/03/13 14:00:26;;;;;;;;;;;;;;;;;;5033086;28;19928;-58
2022/03/13 14:02:52;;;;;;;;;;;;;;;;;;5032951;28;19905;-59
2022/03/13 14:05:18;;;;;;;;;;;;;;;;;;5033271;28;19905;-58
2022/03/13 14:07:44;;;;;;;;;;;;;;;;;;5032796;28;19905;-59
2022/03/13 14:10:11;;;;;;;;;;;;;;;;;;5032910;28;20386;-58
2022/03/13 14:12:38;;;;;;;;;;;;;;;;;;5033152;28;19914;-58
2022/03/13 14:15:03;;;;;;;;;;;;;;;;;;5032821;28;19913;-59
2022/03/13 14:17:30;;;;;;;;;;;;;;;;;;5032804;28;20003;-59
2022/03/13 14:19:56;;;;;;;;;;;;;;;;;;5032829;28;19905;-58
2022/03/13 14:22:22;;;;;;;;;;;;;;;;;;5032777;28;19928;-58
2022/03/13 14:24:48;;;;;;;;;;;;;;;;;;5032685;28;19999;-58
2022/03/13 14:27:13;;;;;;;;;;;;;;;;;;5033016;28;19904;-58
2022/03/13 14:29:39;;;;;;;;;;;;;;;;;;5032719;28;20367;-58
2022/03/13 14:32:05;;;;;;;;;;;;;;;;;;5032654;28;19909;-58
2022/03/13 14:34:31;;;;;;;;;;;;;;;;;;5032704;28;19920;-58
2022/03/13 14:37:00;;;;;;;;;;;;;;;;;;5032685;28;20371;-58
2022/03/13 14:39:26;;;;;;;;;;;;;;;;;;5032694;28;19912;-58
2022/03/13 14:41:51;;;;;;;;;;;;;;;;;;5032990;28;19905;-59
2022/03/13 14:44:18;;;;;;;;;;;;;;;;;;5032353;28;20383;-58
2022/03/13 14:46:44;;;;;;;;;;;;;;;;;;5032613;28;19944;-58
2022/03/13 14:49:10;;;;;;;;;;;;;;;;;;5032506;28;19905;-59
2022/03/13 14:51:35;;;;;;;;;;;;;;;;;;5032805;28;19963;-58
2022/03/13 14:54:01;;;;;;;;;;;;;;;;;;5032382;28;20384;-58
2022/03/13 14:56:28;;;;;;;;;;;;;;;;;;5032693;28;19905;-58
2022/03/13 14:58:54;;;;;;;;;;;;;;;;;;5032558;28;19905;-57
2022/03/13 15:01:20;;;;;;;;;;;;;;;;;;5032466;28;20359;-57
2022/03/13 15:03:46;;;;;;;;;;;;;;;;;;5032392;28;19905;-59
2022/03/13 15:06:12;;;;;;;;;;;;;;;;;;5032639;28;19909;-58
2022/03/13 15:08:39;;;;;;;;;;;;;;;;;;5032298;28;19928;-58
2022/03/13 15:11:05;;;;;;;;;;;;;;;;;;5032347;28;19905;-59
2022/03/13 15:13:31;;;;;;;;;;;;;;;;;;5032525;28;19915;-58